KAVP/AVP METAR and TAF weather

Enter ICAO airport designator
Station Type Date Time Source
KAVP METAR 2018/07/16 23:54 UTC NOAA

KAVP 162354Z VRB05KT 9SM CLR 29/21 A2990 RMK AO2 SLP116 T02890211 10333 20289 55004


Station Type Date Time Source
KAVP Decoded METAR 2018/07/16 23:54 UTC NOAA

WILKES-BARRE/SCRANTON INTERNATIONAL , PA, United States (KAVP) 41-20N 75-44W 291M
Jul 16, 2018 - 07:54 PM EDT / 2018.07.16 2354 UTC
Wind: Variable at 6 MPH (5 KT):0
Visibility: 9 mile(s):0
Sky conditions: clear
Temperature: 84.0 F (28.9 C)
Dew Point: 70.0 F (21.1 C)
Relative Humidity: 62%
Pressure (altimeter): 29.9 in. Hg (1012 hPa)
Pressure tendency: 0.01 inches (0.4 hPa) lower than three hours ago
ob: KAVP 162354Z VRB05KT 9SM CLR 29/21 A2990 RMK AO2 SLP116 T02890211 10333 20289 55004
cycle: 0

Station Type Date Time Source
KAVP TAF 2018/07/16 18:34 UTC NOAA

TAF KAVP 161731Z 1618/1718 23007KT P6SM SCT050
FM170000 VRB03KT P6SM BKN100
FM171000 VRB03KT 5SM HZ BKN025 OVC050
TEMPO 1712/1716 4SM TSRA BR OVC025CB
FM171600 24006KT 3SM TSRA BR OVC025CB


Example: see airport list